Youngstown, NY

12:39 PM EDT on July 29, 2016 (GMT -0400)
Suitorville at Glenvale | | Change Station
Active Advisory: Beach Hazard Statement

Elev 305 ft 43.25 °N, 79.04 °W | Updated 3 seconds ago

Mostly Cloudy
Mostly Cloudy
75.7 °F
Feels Like 77 °F
N
2.5
Wind Variable Wind from NW
Gusts 4.9 mph

Today
High -- | Low -- °F
--% Chance of Precip.
Yesterday
High -- | Low -- °F
Precip. -- in
Pressure 29.94 in
Visibility 10.0 miles
Clouds Few 3500 ft
Mostly Cloudy 5000 ft
Mostly Cloudy 10000 ft
Mostly Cloudy 14000 ft
Mostly Cloudy 26000 ft
Heat Index 77 °F
Dew Point 67 °F
Humidity 74%
Rainfall 0.00 in
Snow Depth Not available.
6:03 AM 8:40 PM
Waning Crescent, 21% visible
METAR KIAG 291553Z 04007KT 10SM FEW035 BKN050 BKN100 BKN140 BKN260 26/17 A2996 RMK AO2 SLP139 T02610172
Pressure 29.94 in
Visibility 10.0 miles
Clouds Few 3500 ft
Mostly Cloudy 5000 ft
Mostly Cloudy 10000 ft
Mostly Cloudy 14000 ft
Mostly Cloudy 26000 ft
Heat Index 77 °F
Dew Point 67 °F
Humidity 74%
Rainfall 0.00 in
Snow Depth Not available.
6:03 AM 8:40 PM
Waning Crescent, 21% visible
METAR KIAG 291553Z 04007KT 10SM FEW035 BKN050 BKN100 BKN140 BKN260 26/17 A2996 RMK AO2 SLP139 T02610172

10-Day Weather Forecast

Almanac

Astronomy

Jul. 29, 2016 Rise Set
Actual Time
Civil Twilight
Nautical Twilight
Astronomical Twilight
Moon
Length of Visible Light
Length of Day
Tomorrow will be .
, % of the Moon is Illuminated

Today's Extremes

State Highs State Lows

Community

WunderPhotos

Upload Photos

1,928,367 photos uploaded!

WunderBlog® & News

Nearby

Air Quality

  Air Quality AQ Index Pollutant
Not available.

Snow Depth

Station Depth Elevation

Earthquake Activity

City Distance Mag. Time & Date
Minimum magnitude displayed is 2.5.

Coastal Water Temperatures

Place Temperature

Stations

Nearby Weather Stations

Station Location Temp. Windchill Dew Point Humidity Wind Precip. Elev Updated Type
                   

Watches & Warnings

Beach Hazard Statement
Issued: 10:42 AM EDT Jul. 29, 2016 – National Weather Service

... Beach hazards statement remains in effect until 2 PM EDT this
afternoon...

* locations... beaches of Niagara... Orleans... Monroe... and Wayne
counties.

* Timing... through early this afternoon.

* Impacts... strong currents and dangerous swimming conditions.

Precautionary/preparedness actions...

A beach hazards statement is issued when there is a high swim
risk. This means life threatening waves and currents are
expected. Stay out of the water and stay away from dangerous
areas like piers and breakwalls.